GLD352 LPFL-LPCR

Flight info

Callsign GLD352
Flight time 0h 16m
Altitude 35000
Route DCT CR476 DCT
Aircraft C182/M-SDFGIRY/S

Departure

Time 2026-04-29 22:09
Airport Flores Airport (LPFL)

Arrival

Time 2026-04-29 22:25
Airport Corvo Airport (LPCR)
Time Latitude Longitude Altitude Speed Heading
2026-04-29 21:49 39.45826 -31.13065 91 ft 0 kts 81°
2026-04-29 22:04 39.45826 -31.13066 91 ft 0 kts 80°
2026-04-29 22:05 39.45826 -31.13062 91 ft 3 kts 98°
2026-04-29 22:06 39.45820 -31.13100 91 ft 11 kts 282°
2026-04-29 22:06 39.45821 -31.13131 91 ft 0 kts 265°
2026-04-29 22:07 39.45820 -31.13137 91 ft 5 kts 262°
2026-04-29 22:07 39.45784 -31.13212 93 ft 13 kts 160°
2026-04-29 22:08 39.45642 -31.13158 98 ft 29 kts 167°
2026-04-29 22:08 39.45396 -31.13106 101 ft 35 kts 177°
2026-04-29 22:08 39.45297 -31.13062 102 ft 9 kts 353°
2026-04-29 22:08 39.45535 -31.13133 99 ft 63 kts 346°
2026-04-29 22:09 39.46015 -31.13258 255 ft 80 kts 348°
2026-04-29 22:09 39.46625 -31.13413 487 ft 96 kts 351°
2026-04-29 22:09 39.47290 -31.13246 705 ft 103 kts 34°
2026-04-29 22:09 39.47675 -31.12418 753 ft 124 kts 58°
2026-04-29 22:10 39.48156 -31.11408 783 ft 133 kts 64°
2026-04-29 22:10 39.48233 -31.10187 861 ft 147 kts 102°
2026-04-29 22:10 39.47631 -31.09098 962 ft 150 kts 136°
2026-04-29 22:10 39.46871 -31.08191 1163 ft 148 kts 135°
2026-04-29 22:11 39.46396 -31.07087 1330 ft 142 kts 91°
2026-04-29 22:11 39.46466 -31.05822 1484 ft 143 kts 82°
2026-04-29 22:11 39.46698 -31.04596 1590 ft 141 kts 52°
2026-04-29 22:11 39.47519 -31.03954 1702 ft 139 kts 17°
2026-04-29 22:12 39.48436 -31.03620 1819 ft 137 kts 360°
2026-04-29 22:12 39.49366 -31.03792 1950 ft 135 kts 350°
2026-04-29 22:12 39.50304 -31.03974 2077 ft 138 kts 351°
2026-04-29 22:12 39.51238 -31.04241 2179 ft 139 kts 333°
2026-04-29 22:13 39.51763 -31.05277 2269 ft 147 kts 281°
2026-04-29 22:13 39.51882 -31.06562 2384 ft 143 kts 289°
2026-04-29 22:13 39.52182 -31.07791 2517 ft 144 kts 290°
2026-04-29 22:13 39.52475 -31.09068 2532 ft 151 kts 290°
2026-04-29 22:14 39.52782 -31.10391 2538 ft 155 kts 289°
2026-04-29 22:14 39.53100 -31.11732 2536 ft 155 kts 290°
2026-04-29 22:14 39.53401 -31.13064 2535 ft 154 kts 290°
2026-04-29 22:14 39.53701 -31.14397 2535 ft 154 kts 290°
2026-04-29 22:15 39.54010 -31.15720 2533 ft 153 kts 290°
2026-04-29 22:15 39.54316 -31.17039 2531 ft 153 kts 289°
2026-04-29 22:15 39.54633 -31.18359 2532 ft 154 kts 290°
2026-04-29 22:15 39.54954 -31.19690 2537 ft 155 kts 290°
2026-04-29 22:16 39.55271 -31.21040 2537 ft 155 kts 289°
2026-04-29 22:16 39.55793 -31.22197 2512 ft 149 kts 324°
2026-04-29 22:16 39.56762 -31.22577 2526 ft 146 kts 351°
2026-04-29 22:16 39.57756 -31.22781 2531 ft 148 kts 351°
2026-04-29 22:17 39.58446 -31.22924 2531 ft 149 kts 351°
2026-04-29 22:17 39.59816 -31.23210 2537 ft 149 kts 351°
2026-04-29 22:17 39.60494 -31.23350 2539 ft 149 kts 351°
2026-04-29 22:17 39.61843 -31.23302 2516 ft 150 kts 26°
2026-04-29 22:18 39.62335 -31.22669 2528 ft 152 kts 51°
2026-04-29 22:18 39.62911 -31.21503 2539 ft 155 kts 54°
2026-04-29 22:18 39.63505 -31.20326 2543 ft 156 kts 54°
2026-04-29 22:18 39.64096 -31.19149 2544 ft 155 kts 54°
2026-04-29 22:19 39.64684 -31.17977 2545 ft 155 kts 54°
2026-04-29 22:19 39.65275 -31.16804 2545 ft 155 kts 53°
2026-04-29 22:19 39.65872 -31.15632 2546 ft 156 kts 54°
2026-04-29 22:19 39.66467 -31.14461 2547 ft 155 kts 53°
2026-04-29 22:20 39.67056 -31.13296 2546 ft 154 kts 53°
2026-04-29 22:20 39.67650 -31.12129 2545 ft 156 kts 54°
2026-04-29 22:20 39.68252 -31.10959 2549 ft 156 kts 54°
2026-04-29 22:20 39.68853 -31.09784 2545 ft 156 kts 54°
2026-04-29 22:21 39.69450 -31.08613 2547 ft 155 kts 53°
2026-04-29 22:21 39.70045 -31.07434 2544 ft 157 kts 54°
2026-04-29 22:21 39.70642 -31.06251 2548 ft 156 kts 54°
2026-04-29 22:21 39.71235 -31.05074 2544 ft 155 kts 57°
2026-04-29 22:22 39.71328 -31.03744 2525 ft 148 kts 108°
2026-04-29 22:22 39.70673 -31.02794 2527 ft 138 kts 145°
2026-04-29 22:22 39.69773 -31.02666 2527 ft 131 kts 201°
2026-04-29 22:22 39.68984 -31.03120 2530 ft 114 kts 224°
2026-04-29 22:23 39.68804 -31.03934 2486 ft 95 kts 272°
2026-04-29 22:23 39.68516 -31.04808 2099 ft 110 kts 243°
2026-04-29 22:23 39.68019 -31.05567 1728 ft 114 kts 232°
2026-04-29 22:23 39.67419 -31.06370 1105 ft 124 kts 230°
2026-04-29 22:24 39.66962 -31.07207 856 ft 109 kts 248°
2026-04-29 22:24 39.66761 -31.08105 622 ft 97 kts 273°
2026-04-29 22:24 39.66819 -31.08887 520 ft 75 kts 287°
2026-04-29 22:24 39.66914 -31.09517 352 ft 71 kts 286°
2026-04-29 22:25 39.66988 -31.10198 287 ft 80 kts 283°
2026-04-29 22:25 39.67080 -31.10934 114 ft 81 kts 285°
2026-04-29 22:25 39.67146 -31.11572 24 ft 60 kts 285°
2026-04-29 22:25 39.67164 -31.11872 17 ft 11 kts 195°
2026-04-29 22:26 39.67162 -31.11799 18 ft 12 kts 85°
2026-04-29 22:26 39.67151 -31.11634 23 ft 24 kts 101°
2026-04-29 22:26 39.67125 -31.11417 25 ft 16 kts 96°
2026-04-29 22:26 39.67105 -31.11359 26 ft 0 kts 137°
2026-04-29 22:27 39.67091 -31.11337 27 ft 6 kts 106°
2026-04-29 22:27 39.67078 -31.11330 27 ft 1 kts 286°
2026-04-29 22:38 39.67078 -31.11329 25 ft 0 kts 286°